Time;durP1;ratioP1;P1;durP2;ratioP2;P2;SDS_P1;SDS_P2;PMS_P1;PMS_P2;Temp;Humidity;BMP_temperature;BMP_pressure;BME280_temperature;BME280_humidity;BME280_pressure;Samples;Min_cycle;Max_cycle;Signal;HPM_P1;HPM_P2
2021/06/25 00:02:06;;;;;;;11.38;3.72;;;;;;;;;;4938292;29;20115;-80
2021/06/25 00:04:33;;;;;;;15.82;3.28;;;;;;;;;;4938889;29;20076;-84
2021/06/25 00:06:59;;;;;;;8.95;2.90;;;;;;;;;;4937249;29;20086;-85
2021/06/25 00:09:25;;;;;;;6.40;3.38;;;;;;;;;;4937099;29;20473;-82
2021/06/25 00:11:52;;;;;;;8.10;2.80;;;;;;;;;;4937047;29;20024;-82
2021/06/25 00:14:22;;;;;;;7.22;2.55;;;;;;;;;;4937551;29;20466;-81
2021/06/25 00:16:52;;;;;;;6.90;2.80;;;;;;;;;;4935593;29;20044;-81
2021/06/25 00:19:19;;;;;;;6.88;3.00;;;;;;;;;;4935728;29;20042;-82
2021/06/25 00:21:45;;;;;;;6.10;3.00;;;;;;;;;;4936926;29;20024;-81
2021/06/25 00:24:11;;;;;;;10.38;2.33;;;;;;;;;;4936765;29;20074;-85
2021/06/25 00:26:38;;;;;;;13.27;3.22;;;;;;;;;;4935612;29;20115;-81
2021/06/25 00:29:04;;;;;;;6.18;2.92;;;;;;;;;;4936760;29;20034;-80
2021/06/25 00:31:30;;;;;;;4.70;2.60;;;;;;;;;;4935608;29;20054;-81
2021/06/25 00:33:57;;;;;;;9.38;2.70;;;;;;;;;;4935432;29;20082;-80
2021/06/25 00:36:23;;;;;;;6.15;2.47;;;;;;;;;;4935308;29;20039;-81
2021/06/25 00:38:49;;;;;;;5.07;2.55;;;;;;;;;;4935332;29;20066;-83
2021/06/25 00:41:15;;;;;;;8.10;2.35;;;;;;;;;;4935333;29;20034;-81
2021/06/25 00:43:42;;;;;;;6.78;2.50;;;;;;;;;;4936684;29;20028;-85
2021/06/25 00:46:08;;;;;;;9.65;2.80;;;;;;;;;;4937062;29;20046;-81
2021/06/25 00:48:34;;;;;;;5.22;2.88;;;;;;;;;;4935285;29;20536;-82
2021/06/25 00:51:01;;;;;;;6.95;2.42;;;;;;;;;;4935304;29;20503;-82
2021/06/25 00:53:29;;;;;;;7.50;2.40;;;;;;;;;;4936457;29;20031;-82
2021/06/25 00:55:55;;;;;;;5.35;2.58;;;;;;;;;;4935062;29;20031;-82
2021/06/25 00:58:22;;;;;;;7.45;2.83;;;;;;;;;;4935157;29;20023;-83
2021/06/25 01:00:48;;;;;;;6.30;2.80;;;;;;;;;;4935117;29;20080;-81
2021/06/25 01:03:14;;;;;;;5.07;2.72;;;;;;;;;;4936289;29;20106;-82
2021/06/25 01:05:41;;;;;;;4.13;2.22;;;;;;;;;;4936799;29;20028;-81
2021/06/25 01:08:09;;;;;;;6.63;3.10;;;;;;;;;;4936921;29;20058;-84
2021/06/25 01:10:39;;;;;;;5.45;2.67;;;;;;;;;;4935178;29;20082;-83
2021/06/25 01:13:06;;;;;;;7.70;2.95;;;;;;;;;;4935211;29;20028;-81
2021/06/25 01:15:32;;;;;;;6.75;2.70;;;;;;;;;;4934920;29;20035;-85
2021/06/25 01:17:58;;;;;;;8.00;2.97;;;;;;;;;;4934901;29;20171;-80
2021/06/25 01:20:25;;;;;;;3.75;2.35;;;;;;;;;;4934797;29;20024;-83
2021/06/25 01:22:51;;;;;;;5.80;3.30;;;;;;;;;;4934896;29;20503;-79
2021/06/25 01:25:25;;;;;;;6.20;2.78;;;;;;;;;;4934817;29;20024;-84
2021/06/25 01:27:53;;;;;;;9.85;3.10;;;;;;;;;;4934891;29;20032;-80
2021/06/25 01:30:20;;;;;;;5.35;2.67;;;;;;;;;;4936572;29;20035;-80
2021/06/25 01:32:47;;;;;;;6.10;2.70;;;;;;;;;;4934922;29;20036;-81
2021/06/25 01:35:14;;;;;;;6.68;2.28;;;;;;;;;;4936015;29;20541;-81
2021/06/25 01:37:41;;;;;;;8.07;2.85;;;;;;;;;;4936416;29;20039;-81
2021/06/25 01:40:09;;;;;;;7.20;2.92;;;;;;;;;;4936260;29;20390;-80
2021/06/25 01:42:37;;;;;;;7.35;3.20;;;;;;;;;;4938569;29;20038;-81
2021/06/25 01:45:05;;;;;;;5.78;3.28;;;;;;;;;;4938520;29;20028;-80
2021/06/25 01:47:31;;;;;;;5.32;2.85;;;;;;;;;;4938443;29;20032;-85
2021/06/25 01:49:58;;;;;;;5.95;2.65;;;;;;;;;;4940326;29;20055;-81
2021/06/25 01:52:24;;;;;;;4.68;2.50;;;;;;;;;;4940188;29;20040;-80
2021/06/25 01:54:50;;;;;;;5.72;3.00;;;;;;;;;;4939544;29;20035;-82
2021/06/25 01:57:17;;;;;;;9.85;3.22;;;;;;;;;;4938980;29;20422;-85
2021/06/25 01:59:43;;;;;;;5.03;2.83;;;;;;;;;;4940068;29;20035;-81
2021/06/25 02:02:09;;;;;;;5.22;2.45;;;;;;;;;;4938348;29;20032;-85
2021/06/25 02:04:36;;;;;;;5.13;2.92;;;;;;;;;;4938257;29;20031;-81
2021/06/25 02:07:03;;;;;;;5.95;3.00;;;;;;;;;;4938232;29;20034;-85
2021/06/25 02:09:29;;;;;;;5.57;2.65;;;;;;;;;;4939331;29;20485;-83
2021/06/25 02:11:55;;;;;;;4.63;2.90;;;;;;;;;;4939811;29;20024;-84
2021/06/25 02:14:22;;;;;;;6.60;2.97;;;;;;;;;;4939529;29;20091;-81
2021/06/25 02:16:49;;;;;;;6.43;3.28;;;;;;;;;;4939081;29;20039;-84
2021/06/25 02:19:15;;;;;;;5.95;3.10;;;;;;;;;;4937932;29;20397;-81
2021/06/25 02:21:42;;;;;;;8.45;3.25;;;;;;;;;;4939738;29;20023;-84
2021/06/25 02:24:08;;;;;;;5.30;2.80;;;;;;;;;;4939106;29;20064;-84
2021/06/25 02:26:35;;;;;;;5.40;2.72;;;;;;;;;;4939085;29;20035;-84
2021/06/25 02:29:01;;;;;;;7.78;3.55;;;;;;;;;;4938904;29;20083;-81
2021/06/25 02:31:28;;;;;;;7.18;3.47;;;;;;;;;;4938941;29;20384;-84
2021/06/25 02:33:54;;;;;;;6.10;3.90;;;;;;;;;;4938967;29;20028;-81
2021/06/25 02:36:20;;;;;;;9.10;4.18;;;;;;;;;;4938744;29;20063;-85
2021/06/25 02:38:47;;;;;;;9.98;4.50;;;;;;;;;;4938564;29;20052;-85
2021/06/25 02:41:13;;;;;;;10.35;4.95;;;;;;;;;;4938961;29;20095;-85
2021/06/25 02:43:39;;;;;;;9.52;3.55;;;;;;;;;;4939201;29;20119;-83
2021/06/25 02:46:05;;;;;;;7.70;4.90;;;;;;;;;;4937454;29;20028;-85
2021/06/25 02:48:31;;;;;;;11.77;4.32;;;;;;;;;;4939423;29;20158;-86
2021/06/25 02:50:58;;;;;;;8.93;4.05;;;;;;;;;;4938310;29;20031;-85
2021/06/25 02:53:24;;;;;;;7.45;4.38;;;;;;;;;;4939026;29;20040;-81
2021/06/25 02:55:50;;;;;;;8.13;4.82;;;;;;;;;;4937157;29;20055;-82
2021/06/25 02:58:17;;;;;;;8.43;4.78;;;;;;;;;;4937227;29;20159;-80
2021/06/25 03:00:43;;;;;;;7.82;4.18;;;;;;;;;;4937202;29;20043;-85
2021/06/25 03:03:10;;;;;;;5.28;3.45;;;;;;;;;;4936993;29;20051;-82
2021/06/25 03:05:36;;;;;;;6.03;3.35;;;;;;;;;;4937573;29;20087;-81
2021/06/25 03:08:02;;;;;;;6.22;2.42;;;;;;;;;;4938971;29;20106;-81
2021/06/25 03:10:29;;;;;;;4.47;2.72;;;;;;;;;;4938219;29;20024;-81
2021/06/25 03:12:55;;;;;;;4.10;2.45;;;;;;;;;;4938046;29;20367;-81
2021/06/25 03:15:21;;;;;;;5.97;2.47;;;;;;;;;;4938144;29;20031;-82
2021/06/25 03:17:48;;;;;;;8.57;2.60;;;;;;;;;;4936742;29;20042;-80
2021/06/25 03:20:14;;;;;;;4.32;2.20;;;;;;;;;;4938077;29;20024;-81
2021/06/25 03:22:41;;;;;;;5.70;2.88;;;;;;;;;;4936746;29;20063;-81
2021/06/25 03:25:08;;;;;;;6.20;2.85;;;;;;;;;;4938053;29;20102;-83
2021/06/25 03:27:34;;;;;;;5.20;2.90;;;;;;;;;;4936747;29;20036;-82
2021/06/25 03:30:01;;;;;;;6.30;2.63;;;;;;;;;;4938372;29;20477;-82
2021/06/25 03:32:27;;;;;;;4.32;3.00;;;;;;;;;;4937833;29;20027;-82
2021/06/25 03:34:53;;;;;;;6.55;3.90;;;;;;;;;;4937815;29;20032;-82
2021/06/25 03:37:21;;;;;;;7.88;4.10;;;;;;;;;;4937576;29;20079;-82
2021/06/25 03:39:47;;;;;;;7.00;3.50;;;;;;;;;;4937763;29;20522;-85
2021/06/25 03:42:14;;;;;;;6.70;3.88;;;;;;;;;;4937839;29;20462;-85
2021/06/25 03:44:40;;;;;;;5.88;3.92;;;;;;;;;;4937611;29;20103;-85
2021/06/25 03:47:07;;;;;;;7.10;3.33;;;;;;;;;;4936419;29;20030;-85
2021/06/25 03:49:34;;;;;;;5.32;3.55;;;;;;;;;;4936220;29;20055;-85
2021/06/25 03:52:00;;;;;;;5.97;3.83;;;;;;;;;;4936269;29;20043;-86
2021/06/25 03:54:27;;;;;;;4.78;3.28;;;;;;;;;;4937345;29;20038;-86
2021/06/25 03:56:53;;;;;;;4.22;3.03;;;;;;;;;;4937282;29;20067;-82
2021/06/25 03:59:19;;;;;;;4.15;2.92;;;;;;;;;;4936044;29;20031;-85
2021/06/25 04:01:45;;;;;;;5.45;3.22;;;;;;;;;;4936164;29;20426;-82
2021/06/25 04:04:12;;;;;;;5.47;3.45;;;;;;;;;;4935746;29;20103;-81
2021/06/25 04:06:38;;;;;;;5.47;3.13;;;;;;;;;;4937261;29;20023;-85
2021/06/25 04:09:05;;;;;;;5.05;2.97;;;;;;;;;;4935970;29;20496;-84
2021/06/25 04:11:31;;;;;;;10.10;2.90;;;;;;;;;;4937186;29;20079;-86
2021/06/25 04:13:57;;;;;;;6.10;2.90;;;;;;;;;;4935765;29;20110;-86
2021/06/25 04:16:24;;;;;;;4.25;2.58;;;;;;;;;;4936943;29;20070;-85
2021/06/25 04:18:50;;;;;;;5.88;2.53;;;;;;;;;;4937429;29;20492;-85
2021/06/25 04:21:17;;;;;;;5.63;2.47;;;;;;;;;;4935630;29;20032;-82
2021/06/25 04:23:43;;;;;;;5.93;2.72;;;;;;;;;;4937498;29;20024;-81
2021/06/25 04:26:09;;;;;;;4.10;2.60;;;;;;;;;;4936774;29;20028;-84
2021/06/25 04:28:35;;;;;;;4.45;2.70;;;;;;;;;;4937072;29;20119;-81
2021/06/25 04:31:03;;;;;;;4.55;2.30;;;;;;;;;;4935129;29;20183;-79
2021/06/25 04:33:29;;;;;;;4.07;2.47;;;;;;;;;;4935317;29;20031;-82
2021/06/25 04:35:55;;;;;;;4.93;2.10;;;;;;;;;;4936590;29;20034;-82
2021/06/25 04:38:22;;;;;;;3.95;2.35;;;;;;;;;;4936326;29;20412;-83
2021/06/25 04:40:48;;;;;;;4.75;2.58;;;;;;;;;;4937046;29;20024;-81
2021/06/25 04:43:16;;;;;;;4.53;2.42;;;;;;;;;;4936476;29;20062;-79
2021/06/25 04:45:43;;;;;;;4.78;2.70;;;;;;;;;;4936150;29;20028;-80
2021/06/25 04:48:10;;;;;;;7.03;2.40;;;;;;;;;;4935337;29;20036;-81
2021/06/25 04:50:37;;;;;;;3.95;2.75;;;;;;;;;;4936935;29;20032;-81
2021/06/25 04:53:03;;;;;;;5.43;2.50;;;;;;;;;;4935163;29;20042;-80
2021/06/25 04:55:30;;;;;;;5.05;2.90;;;;;;;;;;4935061;29;20031;-79
2021/06/25 04:57:56;;;;;;;4.88;2.50;;;;;;;;;;4935171;29;20032;-80
2021/06/25 05:00:24;;;;;;;3.45;2.20;;;;;;;;;;4936429;29;20027;-85
2021/06/25 05:02:50;;;;;;;4.18;2.30;;;;;;;;;;4931739;29;20617;-88
2021/06/25 05:05:16;;;;;;;3.00;2.10;;;;;;;;;;4918206;29;20046;-89
2021/06/25 05:07:43;;;;;;;3.90;2.20;;;;;;;;;;4919414;29;20034;-88
2021/06/25 05:10:10;;;;;;;3.03;2.22;;;;;;;;;;4919068;29;20063;-87
2021/06/25 05:12:36;;;;;;;4.80;2.72;;;;;;;;;;4918979;29;20043;-86
2021/06/25 05:15:02;;;;;;;8.80;2.67;;;;;;;;;;4918598;29;20038;-88
2021/06/25 05:17:29;;;;;;;3.95;2.53;;;;;;;;;;4918932;29;20039;-87
2021/06/25 05:19:55;;;;;;;6.05;3.10;;;;;;;;;;4920094;29;20060;-85
2021/06/25 05:22:21;;;;;;;5.45;3.10;;;;;;;;;;4919358;29;20023;-86
2021/06/25 05:24:47;;;;;;;3.90;2.88;;;;;;;;;;4919021;29;20036;-85
2021/06/25 05:27:13;;;;;;;4.57;3.28;;;;;;;;;;4919075;29;20489;-87
2021/06/25 05:29:40;;;;;;;5.10;3.00;;;;;;;;;;4919024;29;20075;-86
2021/06/25 05:32:06;;;;;;;4.07;2.85;;;;;;;;;;4919253;29;20035;-86
2021/06/25 05:34:32;;;;;;;3.97;2.90;;;;;;;;;;4919363;29;20031;-87
2021/06/25 05:36:58;;;;;;;5.57;2.85;;;;;;;;;;4919325;29;20039;-88
2021/06/25 05:39:24;;;;;;;5.20;2.60;;;;;;;;;;4945805;29;20051;-88
2021/06/25 05:41:50;;;;;;;4.88;2.58;;;;;;;;;;4922029;29;20024;-89
2021/06/25 05:44:16;;;;;;;5.25;2.53;;;;;;;;;;4919200;29;20035;-85
2021/06/25 05:46:43;;;;;;;3.42;2.13;;;;;;;;;;4918772;29;20036;-87
2021/06/25 05:49:09;;;;;;;5.63;2.38;;;;;;;;;;4918784;29;20355;-88
2021/06/25 05:51:35;;;;;;;3.97;2.15;;;;;;;;;;4919211;29;20545;-87
2021/06/25 05:54:01;;;;;;;5.43;2.15;;;;;;;;;;4919893;29;20052;-89
2021/06/25 05:56:27;;;;;;;3.47;2.10;;;;;;;;;;4919839;29;20035;-79
2021/06/25 05:58:53;;;;;;;3.63;2.10;;;;;;;;;;4921391;29;20050;-81
2021/06/25 06:01:19;;;;;;;3.03;2.20;;;;;;;;;;4918828;29;20083;-82
2021/06/25 06:03:45;;;;;;;4.03;2.20;;;;;;;;;;4936522;29;20482;-82
2021/06/25 06:06:12;;;;;;;3.65;2.38;;;;;;;;;;4919672;29;20054;-81
2021/06/25 06:08:38;;;;;;;9.82;2.50;;;;;;;;;;4919521;29;20133;-81
2021/06/25 06:11:05;;;;;;;3.80;2.38;;;;;;;;;;4918968;29;20027;-80
2021/06/25 06:13:31;;;;;;;7.63;2.40;;;;;;;;;;4918688;29;20031;-82
2021/06/25 06:15:57;;;;;;;3.85;2.00;;;;;;;;;;4918354;29;20178;-81
2021/06/25 06:21:09;;;;;;;3.75;2.58;;;;;;;;;;4936651;29;20502;-82
2021/06/25 06:31:55;;;;;;;4.20;2.20;;;;;;;;;;4939503;29;20165;-82
2021/06/25 06:34:22;;;;;;;3.53;2.10;;;;;;;;;;4922244;29;20458;-83
2021/06/25 06:36:48;;;;;;;3.60;2.30;;;;;;;;;;4921800;29;20036;-83
2021/06/25 06:39:17;;;;;;;5.88;2.30;;;;;;;;;;4921747;29;20417;-85
2021/06/25 06:41:43;;;;;;;2.95;2.20;;;;;;;;;;4938706;29;20024;-80
2021/06/25 06:44:09;;;;;;;5.65;1.90;;;;;;;;;;4920150;29;20031;-82
2021/06/25 06:46:36;;;;;;;3.95;2.10;;;;;;;;;;4921094;29;20058;-80
2021/06/25 06:49:03;;;;;;;3.55;1.98;;;;;;;;;;4938526;29;20036;-81
2021/06/25 06:51:29;;;;;;;2.85;1.92;;;;;;;;;;4921786;29;20505;-81
2021/06/25 06:54:00;;;;;;;3.45;1.70;;;;;;;;;;4921548;29;20024;-80
2021/06/25 06:56:26;;;;;;;3.63;1.70;;;;;;;;;;4921422;29;20036;-84
2021/06/25 06:58:53;;;;;;;2.67;1.50;;;;;;;;;;4938336;29;20488;-82
2021/06/25 07:01:20;;;;;;;3.55;1.80;;;;;;;;;;4920380;29;20046;-83
2021/06/25 07:03:46;;;;;;;3.50;1.70;;;;;;;;;;4926690;29;20032;-83
2021/06/25 07:06:14;;;;;;;4.30;1.85;;;;;;;;;;4927062;29;20047;-82
2021/06/25 07:08:40;;;;;;;2.00;1.25;;;;;;;;;;4911421;29;20028;-82
2021/06/25 07:11:07;;;;;;;2.95;1.52;;;;;;;;;;4921043;29;20031;-80
2021/06/25 07:13:33;;;;;;;2.22;1.30;;;;;;;;;;4920989;29;20024;-81
2021/06/25 07:15:59;;;;;;;1.65;1.38;;;;;;;;;;4920788;29;20091;-80
2021/06/25 07:18:25;;;;;;;4.03;1.50;;;;;;;;;;4938245;29;20090;-81
2021/06/25 07:20:52;;;;;;;1.83;1.23;;;;;;;;;;4920760;29;20031;-83
2021/06/25 07:23:18;;;;;;;2.17;1.20;;;;;;;;;;4920972;29;20030;-83
2021/06/25 07:25:44;;;;;;;2.28;1.23;;;;;;;;;;4937779;29;20201;-82
2021/06/25 07:28:10;;;;;;;3.10;1.50;;;;;;;;;;4937982;29;20454;-80
2021/06/25 07:30:37;;;;;;;2.40;1.17;;;;;;;;;;4937646;29;20034;-81
2021/06/25 07:33:03;;;;;;;2.67;1.23;;;;;;;;;;4937614;29;20107;-82
2021/06/25 07:35:30;;;;;;;1.90;1.00;;;;;;;;;;4937485;29;20390;-80
2021/06/25 07:37:56;;;;;;;8.10;1.02;;;;;;;;;;4937168;29;20110;-82
2021/06/25 07:40:23;;;;;;;1.70;0.90;;;;;;;;;;4937890;29;20126;-81
2021/06/25 07:42:49;;;;;;;2.75;1.23;;;;;;;;;;4920357;29;20119;-82
2021/06/25 07:45:16;;;;;;;3.72;1.10;;;;;;;;;;4937404;29;20102;-81
2021/06/25 07:47:43;;;;;;;3.00;0.95;;;;;;;;;;4920297;29;20023;-80
2021/06/25 07:50:12;;;;;;;3.92;0.90;;;;;;;;;;4937455;29;20035;-83
2021/06/25 07:52:38;;;;;;;1.20;0.70;;;;;;;;;;4920464;29;20397;-82
2021/06/25 07:55:05;;;;;;;4.22;1.20;;;;;;;;;;4937251;29;20028;-83
2021/06/25 07:57:31;;;;;;;1.45;0.82;;;;;;;;;;4919870;29;20047;-84
2021/06/25 07:59:57;;;;;;;1.67;0.80;;;;;;;;;;4937066;29;20470;-84
2021/06/25 08:02:23;;;;;;;1.50;0.80;;;;;;;;;;4920344;29;20473;-81
2021/06/25 08:04:50;;;;;;;3.40;0.98;;;;;;;;;;4920263;29;20544;-84
2021/06/25 08:07:17;;;;;;;2.72;0.80;;;;;;;;;;4936999;29;20027;-84
2021/06/25 08:09:44;;;;;;;4.47;0.80;;;;;;;;;;4936904;29;20032;-81
2021/06/25 08:12:14;;;;;;;3.88;1.10;;;;;;;;;;4937259;29;20103;-84
2021/06/25 08:14:40;;;;;;;1.20;0.70;;;;;;;;;;4919742;29;20370;-82
2021/06/25 08:17:07;;;;;;;2.15;0.80;;;;;;;;;;4919593;29;20091;-84
2021/06/25 08:19:33;;;;;;;4.15;0.90;;;;;;;;;;4919530;29;20023;-84
2021/06/25 08:22:00;;;;;;;5.40;1.00;;;;;;;;;;4919643;29;20031;-85
2021/06/25 08:24:26;;;;;;;7.50;0.90;;;;;;;;;;4919566;29;20473;-83
2021/06/25 08:26:52;;;;;;;2.83;0.90;;;;;;;;;;4919577;29;20032;-84
2021/06/25 08:29:18;;;;;;;6.13;1.13;;;;;;;;;;4919537;29;20027;-83
2021/06/25 08:31:45;;;;;;;8.32;1.10;;;;;;;;;;4919496;29;20087;-83
2021/06/25 08:34:11;;;;;;;1.90;0.80;;;;;;;;;;4919472;29;20397;-84
2021/06/25 08:36:38;;;;;;;1.77;0.90;;;;;;;;;;4919630;29;20038;-83
2021/06/25 08:39:05;;;;;;;2.15;1.00;;;;;;;;;;4919116;29;20409;-82
2021/06/25 08:41:34;;;;;;;3.15;0.90;;;;;;;;;;4919084;29;20036;-84
2021/06/25 08:44:00;;;;;;;1.88;0.82;;;;;;;;;;4918959;29;20137;-82
2021/06/25 08:46:28;;;;;;;3.70;1.00;;;;;;;;;;4919250;29;20104;-84
2021/06/25 08:48:55;;;;;;;2.47;1.10;;;;;;;;;;4918561;29;20031;-83
2021/06/25 08:51:21;;;;;;;3.15;0.80;;;;;;;;;;4918987;29;20038;-83
2021/06/25 08:53:48;;;;;;;2.08;1.13;;;;;;;;;;4919184;29;20031;-82
2021/06/25 08:56:15;;;;;;;2.42;1.20;;;;;;;;;;4919026;29;20477;-83
2021/06/25 08:58:41;;;;;;;2.15;1.08;;;;;;;;;;4919003;29;20043;-80
2021/06/25 09:01:07;;;;;;;2.53;1.08;;;;;;;;;;4919133;29;20026;-81
2021/06/25 09:03:33;;;;;;;1.67;0.90;;;;;;;;;;4918909;29;20397;-80
2021/06/25 09:06:10;;;;;;;5.18;0.90;;;;;;;;;;4919201;29;20035;-80
2021/06/25 09:08:36;;;;;;;4.40;1.27;;;;;;;;;;4919043;29;20027;-79
2021/06/25 09:11:16;;;;;;;1.73;1.00;;;;;;;;;;4919075;29;20066;-80
2021/06/25 09:13:42;;;;;;;7.20;1.02;;;;;;;;;;4918942;29;20122;-83
2021/06/25 09:16:22;;;;;;;2.65;1.10;;;;;;;;;;4918848;29;20040;-80
2021/06/25 09:19:00;;;;;;;1.40;0.90;;;;;;;;;;4935975;29;20062;-82
2021/06/25 09:21:26;;;;;;;1.55;0.88;;;;;;;;;;4918802;29;20114;-83
2021/06/25 09:23:52;;;;;;;2.08;0.82;;;;;;;;;;4918843;29;20031;-80
2021/06/25 09:26:21;;;;;;;3.03;1.00;;;;;;;;;;4935937;29;20477;-80
2021/06/25 09:28:48;;;;;;;1.80;1.00;;;;;;;;;;4918878;29;20023;-80
2021/06/25 09:31:18;;;;;;;5.45;0.90;;;;;;;;;;4918777;29;20063;-80
2021/06/25 09:33:49;;;;;;;2.65;1.25;;;;;;;;;;4918632;29;20028;-83
2021/06/25 09:36:30;;;;;;;3.00;1.00;;;;;;;;;;4918511;29;20055;-82
2021/06/25 09:39:00;;;;;;;4.47;1.60;;;;;;;;;;4918567;29;20055;-82
2021/06/25 09:41:27;;;;;;;1.60;0.93;;;;;;;;;;4935829;29;20038;-81
2021/06/25 09:43:54;;;;;;;4.50;0.93;;;;;;;;;;4918784;29;20028;-81
2021/06/25 09:46:29;;;;;;;4.40;1.20;;;;;;;;;;4918568;29;20028;-82
2021/06/25 09:48:57;;;;;;;4.20;1.17;;;;;;;;;;4918681;29;20067;-83
2021/06/25 09:51:23;;;;;;;1.85;0.80;;;;;;;;;;4918546;29;20115;-82
2021/06/25 09:54:02;;;;;;;3.03;1.27;;;;;;;;;;4918625;29;20031;-80
2021/06/25 09:56:28;;;;;;;2.17;1.08;;;;;;;;;;4918493;29;20035;-80
2021/06/25 09:59:21;;;;;;;1.80;1.00;;;;;;;;;;4918578;29;20374;-81
2021/06/25 10:01:49;;;;;;;2.25;1.10;;;;;;;;;;4936726;29;20174;-80
2021/06/25 10:04:15;;;;;;;4.05;1.10;;;;;;;;;;4920331;29;20066;-83
2021/06/25 10:06:41;;;;;;;1.92;0.95;;;;;;;;;;4903255;29;20489;-82
2021/06/25 10:09:07;;;;;;;2.10;0.95;;;;;;;;;;4903238;29;20115;-82
2021/06/25 10:11:34;;;;;;;2.25;1.00;;;;;;;;;;4903039;29;20035;-82
2021/06/25 10:14:01;;;;;;;1.60;0.80;;;;;;;;;;4903059;29;20486;-79
2021/06/25 10:16:28;;;;;;;1.08;0.80;;;;;;;;;;4902960;29;20044;-82
2021/06/25 10:18:55;;;;;;;1.85;1.00;;;;;;;;;;4919950;29;20063;-81
2021/06/25 10:21:23;;;;;;;2.38;1.00;;;;;;;;;;4902879;29;20040;-80
2021/06/25 10:23:50;;;;;;;4.28;1.50;;;;;;;;;;4902932;29;20039;-82
2021/06/25 10:26:17;;;;;;;1.60;0.93;;;;;;;;;;4902871;29;20106;-82
2021/06/25 10:28:44;;;;;;;1.73;0.93;;;;;;;;;;4902911;29;20367;-82
2021/06/25 10:31:11;;;;;;;1.80;1.00;;;;;;;;;;4902769;29;20366;-81
2021/06/25 10:33:38;;;;;;;2.90;0.90;;;;;;;;;;4902719;29;20090;-82
2021/06/25 10:36:09;;;;;;;1.63;0.90;;;;;;;;;;4902607;29;20032;-82
2021/06/25 10:38:35;;;;;;;2.20;1.23;;;;;;;;;;4919469;29;20059;-84
2021/06/25 10:41:06;;;;;;;1.58;0.98;;;;;;;;;;4902580;29;20031;-82
2021/06/25 10:43:43;;;;;;;3.88;1.20;;;;;;;;;;4902460;29;20063;-82
2021/06/25 10:46:38;;;;;;;4.00;1.00;;;;;;;;;;4919457;29;20040;-82
2021/06/25 10:49:07;;;;;;;1.30;0.70;;;;;;;;;;4890627;29;20032;-83
2021/06/25 10:51:37;;;;;;;7.60;1.10;;;;;;;;;;4902320;29;20029;-82
2021/06/25 10:54:19;;;;;;;4.13;1.15;;;;;;;;;;4902365;29;20418;-81
2021/06/25 10:57:05;;;;;;;1.98;1.17;;;;;;;;;;4902326;29;20127;-82
2021/06/25 10:59:32;;;;;;;1.70;1.10;;;;;;;;;;4914183;29;20032;-80
2021/06/25 11:01:59;;;;;;;2.13;1.20;;;;;;;;;;4938238;29;20034;-83
2021/06/25 11:04:45;;;;;;;1.92;1.30;;;;;;;;;;4921032;29;20382;-83
2021/06/25 11:07:13;;;;;;;6.82;1.05;;;;;;;;;;4921121;29;20034;-83
2021/06/25 11:09:58;;;;;;;1.50;0.85;;;;;;;;;;4920933;29;20530;-83
2021/06/25 11:12:24;;;;;;;1.88;1.05;;;;;;;;;;4937069;29;20032;-83
2021/06/25 11:14:51;;;;;;;2.42;0.98;;;;;;;;;;4938164;29;20024;-82
2021/06/25 11:17:36;;;;;;;2.72;1.25;;;;;;;;;;4920828;29;20035;-82
2021/06/25 11:20:17;;;;;;;1.50;0.95;;;;;;;;;;4914397;29;20087;-83
2021/06/25 11:22:50;;;;;;;2.25;1.20;;;;;;;;;;4910252;29;20100;-80
2021/06/25 11:25:32;;;;;;;1.40;0.90;;;;;;;;;;4919613;29;20549;-82
2021/06/25 11:28:23;;;;;;;3.35;1.23;;;;;;;;;;4917983;29;20451;-78
2021/06/25 11:31:08;;;;;;;1.85;1.00;;;;;;;;;;4918969;29;20024;-83
2021/06/25 11:33:54;;;;;;;4.03;1.33;;;;;;;;;;4917440;29;20032;-82
2021/06/25 11:36:20;;;;;;;1.98;1.25;;;;;;;;;;4918821;29;20036;-82
2021/06/25 11:39:04;;;;;;;1.48;0.80;;;;;;;;;;4917152;29;20044;-81
2021/06/25 11:41:33;;;;;;;2.80;1.08;;;;;;;;;;4917310;29;20028;-83
2021/06/25 11:44:00;;;;;;;2.47;1.20;;;;;;;;;;4917226;29;20036;-82
2021/06/25 11:46:26;;;;;;;2.67;1.20;;;;;;;;;;4917106;29;20040;-82
2021/06/25 11:49:03;;;;;;;2.40;1.30;;;;;;;;;;4917149;29;20039;-82
2021/06/25 11:51:40;;;;;;;2.15;1.02;;;;;;;;;;4918792;29;20560;-82
2021/06/25 11:54:07;;;;;;;1.92;1.20;;;;;;;;;;4917359;29;20462;-82
2021/06/25 11:56:34;;;;;;;3.20;0.88;;;;;;;;;;4916911;29;20054;-82
2021/06/25 11:59:01;;;;;;;7.45;1.20;;;;;;;;;;4918236;29;20039;-82
2021/06/25 12:01:28;;;;;;;2.65;1.05;;;;;;;;;;4916902;29;20481;-83
2021/06/25 12:03:54;;;;;;;2.50;1.20;;;;;;;;;;4916904;29;20050;-82
2021/06/25 12:06:21;;;;;;;1.95;1.05;;;;;;;;;;4916590;29;20370;-82
2021/06/25 12:08:54;;;;;;;2.58;1.25;;;;;;;;;;4916738;29;20335;-81
2021/06/25 12:11:21;;;;;;;2.92;1.08;;;;;;;;;;4917991;29;20035;-81
2021/06/25 12:13:55;;;;;;;2.55;1.20;;;;;;;;;;4916792;29;20508;-81
2021/06/25 12:16:21;;;;;;;4.07;1.05;;;;;;;;;;4912521;29;20508;-81
2021/06/25 12:18:47;;;;;;;1.77;0.88;;;;;;;;;;4912527;29;20067;-82
2021/06/25 12:21:15;;;;;;;2.65;1.15;;;;;;;;;;4912890;29;20120;-80
2021/06/25 12:23:41;;;;;;;3.15;1.13;;;;;;;;;;4912844;29;20541;-79
2021/06/25 12:26:16;;;;;;;2.45;1.13;;;;;;;;;;4911646;29;20055;-81
2021/06/25 12:28:42;;;;;;;2.05;0.80;;;;;;;;;;4913881;29;20106;-81
2021/06/25 12:31:16;;;;;;;1.95;1.05;;;;;;;;;;4916099;29;20488;-81
2021/06/25 12:33:42;;;;;;;2.25;1.00;;;;;;;;;;4919517;29;20028;-82
2021/06/25 12:36:12;;;;;;;2.03;1.00;;;;;;;;;;4919638;29;20032;-82
2021/06/25 12:38:38;;;;;;;2.17;1.10;;;;;;;;;;4915976;29;20052;-82
2021/06/25 12:41:05;;;;;;;3.72;0.90;;;;;;;;;;4916234;29;20430;-81
2021/06/25 12:43:36;;;;;;;1.55;0.75;;;;;;;;;;4916253;29;20056;-81
2021/06/25 12:46:11;;;;;;;2.30;1.10;;;;;;;;;;4916293;29;20119;-82
2021/06/25 12:48:44;;;;;;;2.53;1.20;;;;;;;;;;4916154;29;20434;-82
2021/06/25 12:51:12;;;;;;;2.88;1.20;;;;;;;;;;4917320;29;20056;-79
2021/06/25 12:53:40;;;;;;;1.40;0.90;;;;;;;;;;4916102;29;20032;-81
2021/06/25 12:56:18;;;;;;;3.38;0.85;;;;;;;;;;4917327;29;20074;-79
2021/06/25 12:58:46;;;;;;;5.03;0.90;;;;;;;;;;4916221;29;20043;-81
2021/06/25 13:01:12;;;;;;;2.65;0.90;;;;;;;;;;4916020;29;20035;-80
2021/06/25 13:03:39;;;;;;;1.88;0.80;;;;;;;;;;4916043;29;20059;-81
2021/06/25 13:06:29;;;;;;;1.60;0.75;;;;;;;;;;4915906;29;20035;-81
2021/06/25 13:08:55;;;;;;;1.38;0.65;;;;;;;;;;4915888;29;20111;-80
2021/06/25 13:11:22;;;;;;;1.75;0.73;;;;;;;;;;4915931;29;20036;-81
2021/06/25 13:13:49;;;;;;;2.03;1.10;;;;;;;;;;4915799;29;20028;-82
2021/06/25 13:16:16;;;;;;;1.40;0.73;;;;;;;;;;4915766;29;20028;-80
2021/06/25 13:18:43;;;;;;;1.98;0.63;;;;;;;;;;4916953;29;20072;-81
2021/06/25 13:21:28;;;;;;;1.17;0.57;;;;;;;;;;4915835;29;20032;-79
2021/06/25 13:23:57;;;;;;;3.10;0.60;;;;;;;;;;4915758;29;20072;-81
2021/06/25 13:26:34;;;;;;;2.15;0.43;;;;;;;;;;4916987;29;20028;-82
2021/06/25 13:29:02;;;;;;;1.90;0.70;;;;;;;;;;4900321;29;20478;-79
2021/06/25 13:31:28;;;;;;;2.70;0.68;;;;;;;;;;4916206;29;20067;-80
2021/06/25 13:33:54;;;;;;;3.58;0.80;;;;;;;;;;4915769;29;20087;-81
2021/06/25 13:36:21;;;;;;;2.13;0.65;;;;;;;;;;4917778;29;20111;-81
2021/06/25 13:38:47;;;;;;;1.45;0.60;;;;;;;;;;4919259;29;20044;-81
2021/06/25 13:41:20;;;;;;;1.00;0.50;;;;;;;;;;4921064;29;20032;-82
2021/06/25 13:43:50;;;;;;;1.35;0.60;;;;;;;;;;4919475;29;20020;-80
2021/06/25 13:46:17;;;;;;;1.63;0.52;;;;;;;;;;4920803;29;20111;-81
2021/06/25 13:48:44;;;;;;;2.38;0.52;;;;;;;;;;4919375;29;20122;-81
2021/06/25 13:51:11;;;;;;;1.08;0.52;;;;;;;;;;4919475;29;20157;-77
2021/06/25 13:53:38;;;;;;;3.80;0.65;;;;;;;;;;4919720;29;20028;-80
2021/06/25 13:56:09;;;;;;;1.83;0.70;;;;;;;;;;4920603;29;20106;-82
2021/06/25 13:58:51;;;;;;;3.80;0.60;;;;;;;;;;4919104;29;20039;-80
2021/06/25 14:01:22;;;;;;;1.10;0.60;;;;;;;;;;4920408;29;20099;-78
2021/06/25 14:03:55;;;;;;;1.92;0.50;;;;;;;;;;4919091;29;20035;-82
2021/06/25 14:06:21;;;;;;;4.55;0.50;;;;;;;;;;4920217;29;20028;-82
2021/06/25 14:08:47;;;;;;;1.10;0.50;;;;;;;;;;4918799;29;20032;-79
2021/06/25 14:11:13;;;;;;;1.70;0.70;;;;;;;;;;4920182;29;20024;-81
2021/06/25 14:13:41;;;;;;;1.00;0.50;;;;;;;;;;4918822;29;20032;-82
2021/06/25 14:16:16;;;;;;;1.15;0.60;;;;;;;;;;4920262;29;20509;-80
2021/06/25 14:18:42;;;;;;;2.10;0.60;;;;;;;;;;4919957;29;20036;-81
2021/06/25 14:21:09;;;;;;;1.10;0.52;;;;;;;;;;4918843;29;20029;-82
2021/06/25 14:23:35;;;;;;;1.55;0.50;;;;;;;;;;4918741;29;20494;-80
2021/06/25 14:26:02;;;;;;;0.90;0.40;;;;;;;;;;4918479;29;20537;-82
2021/06/25 14:28:28;;;;;;;2.13;0.50;;;;;;;;;;4918618;29;20036;-81
2021/06/25 14:30:55;;;;;;;1.05;0.45;;;;;;;;;;4919675;29;20474;-81
2021/06/25 14:33:21;;;;;;;5.88;0.50;;;;;;;;;;4918560;29;20442;-80
2021/06/25 14:35:48;;;;;;;2.15;0.60;;;;;;;;;;4918387;29;20478;-79
2021/06/25 14:38:15;;;;;;;1.35;0.55;;;;;;;;;;4920043;29;20044;-81
2021/06/25 14:40:41;;;;;;;2.00;0.40;;;;;;;;;;4921108;29;20035;-79
2021/06/25 14:43:07;;;;;;;0.68;0.40;;;;;;;;;;4921360;29;20031;-79
2021/06/25 14:45:33;;;;;;;2.20;0.60;;;;;;;;;;4938430;29;20079;-81
2021/06/25 14:48:00;;;;;;;1.58;0.40;;;;;;;;;;4938463;29;20032;-80
2021/06/25 14:50:26;;;;;;;1.33;0.50;;;;;;;;;;4938556;29;20031;-81
2021/06/25 14:52:52;;;;;;;0.80;0.40;;;;;;;;;;4921308;29;20031;-79
2021/06/25 14:55:19;;;;;;;2.55;0.60;;;;;;;;;;4921262;29;20027;-81
2021/06/25 14:57:45;;;;;;;1.40;0.50;;;;;;;;;;4920927;29;20489;-82
2021/06/25 15:00:13;;;;;;;0.75;0.40;;;;;;;;;;4921189;29;20504;-81